sensor_id;sensor_type;location;lat;lon;timestamp;temperature;humidity
75153;HTU21D;63734;45.218;36.708;2023-05-07T00:01:57;15.19;89.19
75153;HTU21D;63734;45.218;36.708;2023-05-07T00:04:23;15.19;88.96
75153;HTU21D;63734;45.218;36.708;2023-05-07T00:06:48;15.17;88.83
75153;HTU21D;63734;45.218;36.708;2023-05-07T00:09:15;15.14;88.76
75153;HTU21D;63734;45.218;36.708;2023-05-07T00:11:42;15.12;89.09
75153;HTU21D;63734;45.218;36.708;2023-05-07T00:14:07;15.10;88.90
75153;HTU21D;63734;45.218;36.708;2023-05-07T00:16:33;15.10;89.50
75153;HTU21D;63734;45.218;36.708;2023-05-07T00:19:00;15.09;90.44
75153;HTU21D;63734;45.218;36.708;2023-05-07T00:21:25;15.10;90.96
75153;HTU21D;63734;45.218;36.708;2023-05-07T00:23:53;15.04;90.00
75153;HTU21D;63734;45.218;36.708;2023-05-07T00:26:19;15.00;90.00
75153;HTU21D;63734;45.218;36.708;2023-05-07T00:28:48;15.00;90.57
75153;HTU21D;63734;45.218;36.708;2023-05-07T00:31:14;14.95;89.63
75153;HTU21D;63734;45.218;36.708;2023-05-07T00:33:40;14.89;89.21
75153;HTU21D;63734;45.218;36.708;2023-05-07T00:36:06;14.87;89.66
75153;HTU21D;63734;45.218;36.708;2023-05-07T00:38:32;14.84;89.69
75153;HTU21D;63734;45.218;36.708;2023-05-07T00:40:58;14.82;89.90
75153;HTU21D;63734;45.218;36.708;2023-05-07T00:43:24;14.81;90.30
75153;HTU21D;63734;45.218;36.708;2023-05-07T00:45:51;14.78;90.32
75153;HTU21D;63734;45.218;36.708;2023-05-07T00:48:17;14.75;90.08
75153;HTU21D;63734;45.218;36.708;2023-05-07T00:50:44;14.73;90.41
75153;HTU21D;63734;45.218;36.708;2023-05-07T00:53:11;14.73;89.90
75153;HTU21D;63734;45.218;36.708;2023-05-07T00:55:38;14.72;89.92
75153;HTU21D;63734;45.218;36.708;2023-05-07T00:58:04;14.66;89.44
75153;HTU21D;63734;45.218;36.708;2023-05-07T01:00:32;14.67;90.20
75153;HTU21D;63734;45.218;36.708;2023-05-07T01:02:58;14.67;90.15
75153;HTU21D;63734;45.218;36.708;2023-05-07T01:05:26;14.64;90.23
75153;HTU21D;63734;45.218;36.708;2023-05-07T01:07:53;14.62;89.89
75153;HTU21D;63734;45.218;36.708;2023-05-07T01:10:21;14.58;90.43
75153;HTU21D;63734;45.218;36.708;2023-05-07T01:12:48;14.56;90.76
75153;HTU21D;63734;45.218;36.708;2023-05-07T01:15:15;14.56;90.80
75153;HTU21D;63734;45.218;36.708;2023-05-07T01:17:42;14.57;90.92
75153;HTU21D;63734;45.218;36.708;2023-05-07T01:20:14;14.57;90.49
75153;HTU21D;63734;45.218;36.708;2023-05-07T01:22:43;14.53;89.73
75153;HTU21D;63734;45.218;36.708;2023-05-07T01:25:10;14.54;89.99
75153;HTU21D;63734;45.218;36.708;2023-05-07T01:27:41;14.54;89.91
75153;HTU21D;63734;45.218;36.708;2023-05-07T01:30:07;14.52;89.94
75153;HTU21D;63734;45.218;36.708;2023-05-07T01:32:43;14.53;90.09
75153;HTU21D;63734;45.218;36.708;2023-05-07T01:35:11;14.52;89.67
75153;HTU21D;63734;45.218;36.708;2023-05-07T01:37:39;14.49;89.25
75153;HTU21D;63734;45.218;36.708;2023-05-07T01:40:06;14.48;89.28
75153;HTU21D;63734;45.218;36.708;2023-05-07T01:42:33;14.43;89.39
75153;HTU21D;63734;45.218;36.708;2023-05-07T01:44:59;14.45;90.15
75153;HTU21D;63734;45.218;36.708;2023-05-07T01:47:26;14.43;89.21
75153;HTU21D;63734;45.218;36.708;2023-05-07T01:49:52;14.41;88.62
75153;HTU21D;63734;45.218;36.708;2023-05-07T01:52:19;14.43;88.86
75153;HTU21D;63734;45.218;36.708;2023-05-07T01:54:45;14.44;89.64
75153;HTU21D;63734;45.218;36.708;2023-05-07T01:57:11;14.47;90.57
75153;HTU21D;63734;45.218;36.708;2023-05-07T01:59:37;14.41;89.77
75153;HTU21D;63734;45.218;36.708;2023-05-07T02:02:03;14.37;89.70
75153;HTU21D;63734;45.218;36.708;2023-05-07T02:04:31;14.36;89.89
75153;HTU21D;63734;45.218;36.708;2023-05-07T02:06:57;14.30;89.52
75153;HTU21D;63734;45.218;36.708;2023-05-07T02:09:23;14.29;89.57
75153;HTU21D;63734;45.218;36.708;2023-05-07T02:11:50;14.27;88.99
75153;HTU21D;63734;45.218;36.708;2023-05-07T02:14:18;14.25;89.44
75153;HTU21D;63734;45.218;36.708;2023-05-07T02:16:45;14.25;89.81
75153;HTU21D;63734;45.218;36.708;2023-05-07T02:19:13;14.22;89.69
75153;HTU21D;63734;45.218;36.708;2023-05-07T02:21:39;14.18;88.89
75153;HTU21D;63734;45.218;36.708;2023-05-07T02:24:06;14.15;88.95
75153;HTU21D;63734;45.218;36.708;2023-05-07T02:26:32;14.11;88.03
75153;HTU21D;63734;45.218;36.708;2023-05-07T02:28:58;14.10;88.60
75153;HTU21D;63734;45.218;36.708;2023-05-07T02:31:23;14.08;88.46
75153;HTU21D;63734;45.218;36.708;2023-05-07T02:33:49;14.05;88.35
75153;HTU21D;63734;45.218;36.708;2023-05-07T02:36:16;14.01;88.10
75153;HTU21D;63734;45.218;36.708;2023-05-07T02:38:54;14.04;89.12
75153;HTU21D;63734;45.218;36.708;2023-05-07T02:41:20;14.00;87.84
75153;HTU21D;63734;45.218;36.708;2023-05-07T02:43:46;13.95;87.86
75153;HTU21D;63734;45.218;36.708;2023-05-07T02:46:12;13.96;88.32
75153;HTU21D;63734;45.218;36.708;2023-05-07T02:48:42;13.95;88.41
75153;HTU21D;63734;45.218;36.708;2023-05-07T02:51:08;13.96;89.56
75153;HTU21D;63734;45.218;36.708;2023-05-07T02:53:36;13.94;88.10
75153;HTU21D;63734;45.218;36.708;2023-05-07T02:56:02;13.92;88.11
75153;HTU21D;63734;45.218;36.708;2023-05-07T02:58:28;13.92;88.10
75153;HTU21D;63734;45.218;36.708;2023-05-07T03:00:55;13.91;88.64
75153;HTU21D;63734;45.218;36.708;2023-05-07T03:03:42;13.93;89.41
75153;HTU21D;63734;45.218;36.708;2023-05-07T03:06:08;13.90;88.79
75153;HTU21D;63734;45.218;36.708;2023-05-07T03:08:34;13.90;88.61
75153;HTU21D;63734;45.218;36.708;2023-05-07T03:11:00;13.89;87.96
75153;HTU21D;63734;45.218;36.708;2023-05-07T03:13:26;13.89;88.87
75153;HTU21D;63734;45.218;36.708;2023-05-07T03:15:52;13.93;89.38
75153;HTU21D;63734;45.218;36.708;2023-05-07T03:18:18;13.93;88.58
75153;HTU21D;63734;45.218;36.708;2023-05-07T03:20:43;13.90;87.99
75153;HTU21D;63734;45.218;36.708;2023-05-07T03:23:09;13.89;88.55
75153;HTU21D;63734;45.218;36.708;2023-05-07T03:25:35;13.90;88.65
75153;HTU21D;63734;45.218;36.708;2023-05-07T03:28:01;13.90;88.22
75153;HTU21D;63734;45.218;36.708;2023-05-07T03:30:36;13.91;88.75
75153;HTU21D;63734;45.218;36.708;2023-05-07T03:33:02;13.90;88.43
75153;HTU21D;63734;45.218;36.708;2023-05-07T03:35:28;13.93;89.68
75153;HTU21D;63734;45.218;36.708;2023-05-07T03:37:55;13.95;89.56
75153;HTU21D;63734;45.218;36.708;2023-05-07T03:40:21;13.91;89.23
75153;HTU21D;63734;45.218;36.708;2023-05-07T03:42:51;13.88;88.61
75153;HTU21D;63734;45.218;36.708;2023-05-07T03:45:19;13.86;88.89
75153;HTU21D;63734;45.218;36.708;2023-05-07T03:47:53;13.83;89.05
75153;HTU21D;63734;45.218;36.708;2023-05-07T03:50:20;13.83;89.70
75153;HTU21D;63734;45.218;36.708;2023-05-07T03:52:46;13.82;89.58
75153;HTU21D;63734;45.218;36.708;2023-05-07T03:55:15;13.82;89.76
75153;HTU21D;63734;45.218;36.708;2023-05-07T03:57:47;13.86;90.32
75153;HTU21D;63734;45.218;36.708;2023-05-07T04:00:13;13.88;89.58
75153;HTU21D;63734;45.218;36.708;2023-05-07T04:02:48;13.86;88.74
75153;HTU21D;63734;45.218;36.708;2023-05-07T04:05:21;13.82;88.67
75153;HTU21D;63734;45.218;36.708;2023-05-07T04:07:50;13.83;89.31
75153;HTU21D;63734;45.218;36.708;2023-05-07T04:10:20;13.88;89.82
75153;HTU21D;63734;45.218;36.708;2023-05-07T04:12:49;13.91;89.89
75153;HTU21D;63734;45.218;36.708;2023-05-07T04:15:19;13.92;90.04
75153;HTU21D;63734;45.218;36.708;2023-05-07T04:17:45;13.91;90.05
75153;HTU21D;63734;45.218;36.708;2023-05-07T04:20:17;13.93;90.24
75153;HTU21D;63734;45.218;36.708;2023-05-07T04:22:47;13.88;89.23
75153;HTU21D;63734;45.218;36.708;2023-05-07T04:25:13;13.84;89.89
75153;HTU21D;63734;45.218;36.708;2023-05-07T04:27:39;13.85;90.02
75153;HTU21D;63734;45.218;36.708;2023-05-07T04:30:06;13.83;90.09
75153;HTU21D;63734;45.218;36.708;2023-05-07T04:32:36;13.84;90.34
75153;HTU21D;63734;45.218;36.708;2023-05-07T04:35:04;13.84;89.70
75153;HTU21D;63734;45.218;36.708;2023-05-07T04:37:32;13.88;90.83
75153;HTU21D;63734;45.218;36.708;2023-05-07T04:39:58;13.91;90.56
75153;HTU21D;63734;45.218;36.708;2023-05-07T04:42:25;13.93;90.06
75153;HTU21D;63734;45.218;36.708;2023-05-07T04:44:53;13.93;89.87
75153;HTU21D;63734;45.218;36.708;2023-05-07T04:47:19;13.96;90.08
75153;HTU21D;63734;45.218;36.708;2023-05-07T04:49:46;13.98;90.50
75153;HTU21D;63734;45.218;36.708;2023-05-07T04:52:13;13.98;88.10
75153;HTU21D;63734;45.218;36.708;2023-05-07T04:54:40;13.98;88.22
75153;HTU21D;63734;45.218;36.708;2023-05-07T04:57:07;13.97;86.10
75153;HTU21D;63734;45.218;36.708;2023-05-07T04:59:34;13.98;85.91
75153;HTU21D;63734;45.218;36.708;2023-05-07T05:02:00;13.99;86.49
75153;HTU21D;63734;45.218;36.708;2023-05-07T05:04:27;14.06;87.75
75153;HTU21D;63734;45.218;36.708;2023-05-07T05:06:54;14.06;87.88
75153;HTU21D;63734;45.218;36.708;2023-05-07T05:09:20;14.01;86.01
75153;HTU21D;63734;45.218;36.708;2023-05-07T05:11:46;14.01;86.88
75153;HTU21D;63734;45.218;36.708;2023-05-07T05:14:12;13.95;85.24
75153;HTU21D;63734;45.218;36.708;2023-05-07T05:16:39;13.94;85.94
75153;HTU21D;63734;45.218;36.708;2023-05-07T05:19:05;13.94;85.97
75153;HTU21D;63734;45.218;36.708;2023-05-07T05:21:35;13.94;86.41
75153;HTU21D;63734;45.218;36.708;2023-05-07T05:24:06;13.92;86.32
75153;HTU21D;63734;45.218;36.708;2023-05-07T05:26:35;13.92;86.41
75153;HTU21D;63734;45.218;36.708;2023-05-07T05:29:11;13.91;86.55
75153;HTU21D;63734;45.218;36.708;2023-05-07T05:31:41;13.88;86.88
75153;HTU21D;63734;45.218;36.708;2023-05-07T05:34:07;13.88;87.61
75153;HTU21D;63734;45.218;36.708;2023-05-07T05:36:34;13.82;86.72
75153;HTU21D;63734;45.218;36.708;2023-05-07T05:39:01;13.78;87.19
75153;HTU21D;63734;45.218;36.708;2023-05-07T05:41:27;13.78;88.30
75153;HTU21D;63734;45.218;36.708;2023-05-07T05:43:53;13.80;88.38
75153;HTU21D;63734;45.218;36.708;2023-05-07T05:46:19;13.76;87.62
75153;HTU21D;63734;45.218;36.708;2023-05-07T05:48:47;13.69;86.73
75153;HTU21D;63734;45.218;36.708;2023-05-07T05:51:12;13.67;88.04
75153;HTU21D;63734;45.218;36.708;2023-05-07T05:53:38;13.64;88.39
75153;HTU21D;63734;45.218;36.708;2023-05-07T05:56:06;13.59;88.60
75153;HTU21D;63734;45.218;36.708;2023-05-07T05:58:33;13.58;90.28
75153;HTU21D;63734;45.218;36.708;2023-05-07T06:01:02;13.55;90.51
75153;HTU21D;63734;45.218;36.708;2023-05-07T06:03:30;13.54;91.12
75153;HTU21D;63734;45.218;36.708;2023-05-07T06:05:59;13.52;91.25
75153;HTU21D;63734;45.218;36.708;2023-05-07T06:08:28;13.47;90.20
75153;HTU21D;63734;45.218;36.708;2023-05-07T06:10:55;13.46;92.19
75153;HTU21D;63734;45.218;36.708;2023-05-07T06:13:22;13.46;91.74
75153;HTU21D;63734;45.218;36.708;2023-05-07T06:15:50;13.44;92.08
75153;HTU21D;63734;45.218;36.708;2023-05-07T06:18:16;13.41;91.19
75153;HTU21D;63734;45.218;36.708;2023-05-07T06:20:42;13.39;91.81
75153;HTU21D;63734;45.218;36.708;2023-05-07T06:23:14;13.37;92.56
75153;HTU21D;63734;45.218;36.708;2023-05-07T06:25:40;13.38;93.31
75153;HTU21D;63734;45.218;36.708;2023-05-07T06:28:07;13.35;93.60
75153;HTU21D;63734;45.218;36.708;2023-05-07T06:30:39;13.36;93.77
75153;HTU21D;63734;45.218;36.708;2023-05-07T06:33:06;13.37;95.05
75153;HTU21D;63734;45.218;36.708;2023-05-07T06:35:32;13.36;94.51
75153;HTU21D;63734;45.218;36.708;2023-05-07T06:37:58;13.31;95.22
75153;HTU21D;63734;45.218;36.708;2023-05-07T06:40:26;13.31;95.22
75153;HTU21D;63734;45.218;36.708;2023-05-07T06:42:53;13.31;95.68
75153;HTU21D;63734;45.218;36.708;2023-05-07T06:45:29;13.26;93.76
75153;HTU21D;63734;45.218;36.708;2023-05-07T06:47:56;13.25;92.94
75153;HTU21D;63734;45.218;36.708;2023-05-07T06:50:23;13.26;93.60
75153;HTU21D;63734;45.218;36.708;2023-05-07T06:52:54;13.26;92.47
75153;HTU21D;63734;45.218;36.708;2023-05-07T06:55:20;13.27;92.40
75153;HTU21D;63734;45.218;36.708;2023-05-07T06:57:47;13.26;92.32
75153;HTU21D;63734;45.218;36.708;2023-05-07T07:00:14;13.27;92.36
75153;HTU21D;63734;45.218;36.708;2023-05-07T07:02:47;13.27;92.03
75153;HTU21D;63734;45.218;36.708;2023-05-07T07:05:16;13.24;92.07
75153;HTU21D;63734;45.218;36.708;2023-05-07T07:07:42;13.25;92.67
75153;HTU21D;63734;45.218;36.708;2023-05-07T07:10:09;13.31;93.19
75153;HTU21D;63734;45.218;36.708;2023-05-07T07:12:35;13.29;92.78
75153;HTU21D;63734;45.218;36.708;2023-05-07T07:15:02;13.27;92.52
75153;HTU21D;63734;45.218;36.708;2023-05-07T07:17:28;13.29;92.96
75153;HTU21D;63734;45.218;36.708;2023-05-07T07:19:55;13.32;93.82
75153;HTU21D;63734;45.218;36.708;2023-05-07T07:22:20;13.35;93.59
75153;HTU21D;63734;45.218;36.708;2023-05-07T07:24:47;13.37;93.07
75153;HTU21D;63734;45.218;36.708;2023-05-07T07:27:16;13.40;93.24
75153;HTU21D;63734;45.218;36.708;2023-05-07T07:29:42;13.49;93.88
75153;HTU21D;63734;45.218;36.708;2023-05-07T07:32:08;13.55;94.25
75153;HTU21D;63734;45.218;36.708;2023-05-07T07:34:34;13.56;93.30
75153;HTU21D;63734;45.218;36.708;2023-05-07T07:37:01;13.52;92.15
75153;HTU21D;63734;45.218;36.708;2023-05-07T07:39:32;13.55;92.92
75153;HTU21D;63734;45.218;36.708;2023-05-07T07:41:59;13.54;93.37
75153;HTU21D;63734;45.218;36.708;2023-05-07T07:44:28;13.48;92.37
75153;HTU21D;63734;45.218;36.708;2023-05-07T07:46:58;13.52;93.12
75153;HTU21D;63734;45.218;36.708;2023-05-07T07:49:26;13.53;93.94
75153;HTU21D;63734;45.218;36.708;2023-05-07T07:51:53;13.56;94.49
75153;HTU21D;63734;45.218;36.708;2023-05-07T07:54:20;13.54;93.90
75153;HTU21D;63734;45.218;36.708;2023-05-07T07:56:46;13.52;93.30
75153;HTU21D;63734;45.218;36.708;2023-05-07T07:59:13;13.48;93.66
75153;HTU21D;63734;45.218;36.708;2023-05-07T08:01:43;13.43;93.61
75153;HTU21D;63734;45.218;36.708;2023-05-07T08:04:09;13.44;94.36
75153;HTU21D;63734;45.218;36.708;2023-05-07T08:06:39;13.43;94.51
75153;HTU21D;63734;45.218;36.708;2023-05-07T08:09:07;13.41;94.14
75153;HTU21D;63734;45.218;36.708;2023-05-07T08:11:34;13.43;94.09
75153;HTU21D;63734;45.218;36.708;2023-05-07T08:14:02;13.44;94.12
75153;HTU21D;63734;45.218;36.708;2023-05-07T08:16:29;13.55;95.14
75153;HTU21D;63734;45.218;36.708;2023-05-07T08:18:55;13.60;94.21
75153;HTU21D;63734;45.218;36.708;2023-05-07T08:21:22;13.64;93.98
75153;HTU21D;63734;45.218;36.708;2023-05-07T08:23:48;13.67;94.06
75153;HTU21D;63734;45.218;36.708;2023-05-07T08:26:14;13.69;94.40
75153;HTU21D;63734;45.218;36.708;2023-05-07T08:28:42;13.65;92.89
75153;HTU21D;63734;45.218;36.708;2023-05-07T08:31:09;13.60;92.35
75153;HTU21D;63734;45.218;36.708;2023-05-07T08:33:38;13.63;93.36
75153;HTU21D;63734;45.218;36.708;2023-05-07T08:36:05;13.71;93.82
75153;HTU21D;63734;45.218;36.708;2023-05-07T08:38:31;13.75;92.26
75153;HTU21D;63734;45.218;36.708;2023-05-07T08:40:58;13.75;91.62
75153;HTU21D;63734;45.218;36.708;2023-05-07T08:43:26;13.76;91.37
75153;HTU21D;63734;45.218;36.708;2023-05-07T08:45:55;13.73;91.19
75153;HTU21D;63734;45.218;36.708;2023-05-07T08:48:29;13.74;91.63
75153;HTU21D;63734;45.218;36.708;2023-05-07T08:51:15;13.76;92.23
75153;HTU21D;63734;45.218;36.708;2023-05-07T08:53:42;13.76;91.73
75153;HTU21D;63734;45.218;36.708;2023-05-07T08:56:11;13.76;91.34
75153;HTU21D;63734;45.218;36.708;2023-05-07T08:58:37;13.79;92.59
75153;HTU21D;63734;45.218;36.708;2023-05-07T09:01:09;13.82;92.59
75153;HTU21D;63734;45.218;36.708;2023-05-07T09:03:38;13.77;92.06
75153;HTU21D;63734;45.218;36.708;2023-05-07T09:06:05;13.76;91.94
75153;HTU21D;63734;45.218;36.708;2023-05-07T09:08:33;13.76;91.52
75153;HTU21D;63734;45.218;36.708;2023-05-07T09:11:02;13.75;92.24
75153;HTU21D;63734;45.218;36.708;2023-05-07T09:13:29;13.76;92.11
75153;HTU21D;63734;45.218;36.708;2023-05-07T09:15:56;13.74;91.73
75153;HTU21D;63734;45.218;36.708;2023-05-07T09:18:24;13.69;90.94
75153;HTU21D;63734;45.218;36.708;2023-05-07T09:20:51;13.68;90.98
75153;HTU21D;63734;45.218;36.708;2023-05-07T09:23:20;13.64;91.27
75153;HTU21D;63734;45.218;36.708;2023-05-07T09:25:46;13.60;91.11
75153;HTU21D;63734;45.218;36.708;2023-05-07T09:28:19;13.55;90.69
75153;HTU21D;63734;45.218;36.708;2023-05-07T09:30:45;13.56;91.08
75153;HTU21D;63734;45.218;36.708;2023-05-07T09:33:13;13.54;90.78
75153;HTU21D;63734;45.218;36.708;2023-05-07T09:35:44;13.53;91.19
75153;HTU21D;63734;45.218;36.708;2023-05-07T09:38:18;13.50;91.14
75153;HTU21D;63734;45.218;36.708;2023-05-07T09:40:47;13.54;92.24
75153;HTU21D;63734;45.218;36.708;2023-05-07T09:43:15;13.53;92.01
75153;HTU21D;63734;45.218;36.708;2023-05-07T09:45:47;13.54;92.20
75153;HTU21D;63734;45.218;36.708;2023-05-07T09:48:18;13.52;92.28
75153;HTU21D;63734;45.218;36.708;2023-05-07T09:50:49;13.49;92.01
75153;HTU21D;63734;45.218;36.708;2023-05-07T09:53:21;13.44;91.69
75153;HTU21D;63734;45.218;36.708;2023-05-07T09:55:48;13.40;92.19
75153;HTU21D;63734;45.218;36.708;2023-05-07T09:58:14;13.43;93.37
75153;HTU21D;63734;45.218;36.708;2023-05-07T10:00:43;13.39;92.46
75153;HTU21D;63734;45.218;36.708;2023-05-07T10:03:13;13.41;94.02
75153;HTU21D;63734;45.218;36.708;2023-05-07T10:05:49;13.46;94.36
75153;HTU21D;63734;45.218;36.708;2023-05-07T10:08:17;13.45;93.96
75153;HTU21D;63734;45.218;36.708;2023-05-07T10:10:48;13.46;93.66
75153;HTU21D;63734;45.218;36.708;2023-05-07T10:13:19;13.45;92.69
75153;HTU21D;63734;45.218;36.708;2023-05-07T10:15:49;13.47;93.49
75153;HTU21D;63734;45.218;36.708;2023-05-07T10:18:18;13.45;92.99
75153;HTU21D;63734;45.218;36.708;2023-05-07T10:20:49;13.44;92.90
75153;HTU21D;63734;45.218;36.708;2023-05-07T10:23:22;13.40;93.19
75153;HTU21D;63734;45.218;36.708;2023-05-07T10:25:49;13.43;93.49
75153;HTU21D;63734;45.218;36.708;2023-05-07T10:28:21;13.47;93.62
75153;HTU21D;63734;45.218;36.708;2023-05-07T10:31:11;13.45;92.87
75153;HTU21D;63734;45.218;36.708;2023-05-07T10:33:46;13.46;92.30
75153;HTU21D;63734;45.218;36.708;2023-05-07T10:36:15;13.49;92.39
75153;HTU21D;63734;45.218;36.708;2023-05-07T10:38:43;13.55;92.83
75153;HTU21D;63734;45.218;36.708;2023-05-07T10:41:11;13.65;92.61
75153;HTU21D;63734;45.218;36.708;2023-05-07T10:43:42;13.70;92.02
75153;HTU21D;63734;45.218;36.708;2023-05-07T10:46:18;13.75;91.52
75153;HTU21D;63734;45.218;36.708;2023-05-07T10:49:13;13.76;91.32
75153;HTU21D;63734;45.218;36.708;2023-05-07T10:52:15;13.81;91.64
75153;HTU21D;63734;45.218;36.708;2023-05-07T10:58:31;13.78;90.11
75153;HTU21D;63734;45.218;36.708;2023-05-07T11:01:14;13.82;90.53
75153;HTU21D;63734;45.218;36.708;2023-05-07T11:04:15;13.84;90.86
75153;HTU21D;63734;45.218;36.708;2023-05-07T11:09:58;14.03;90.38
75153;HTU21D;63734;45.218;36.708;2023-05-07T11:12:53;14.05;90.73
75153;HTU21D;63734;45.218;36.708;2023-05-07T11:15:44;13.98;89.49
75153;HTU21D;63734;45.218;36.708;2023-05-07T11:18:56;13.95;89.62
75153;HTU21D;63734;45.218;36.708;2023-05-07T11:21:37;13.99;90.51
75153;HTU21D;63734;45.218;36.708;2023-05-07T11:24:26;14.05;90.86
75153;HTU21D;63734;45.218;36.708;2023-05-07T11:26:57;14.08;90.63
75153;HTU21D;63734;45.218;36.708;2023-05-07T11:29:25;14.14;91.39
75153;HTU21D;63734;45.218;36.708;2023-05-07T11:32:02;14.13;90.50
75153;HTU21D;63734;45.218;36.708;2023-05-07T11:34:34;14.15;90.90
75153;HTU21D;63734;45.218;36.708;2023-05-07T11:37:01;14.14;90.90
75153;HTU21D;63734;45.218;36.708;2023-05-07T11:39:40;14.14;90.70
75153;HTU21D;63734;45.218;36.708;2023-05-07T11:42:27;14.13;90.20
75153;HTU21D;63734;45.218;36.708;2023-05-07T11:44:53;14.11;90.08
75153;HTU21D;63734;45.218;36.708;2023-05-07T11:47:20;14.10;90.42
75153;HTU21D;63734;45.218;36.708;2023-05-07T11:49:50;14.14;91.89
75153;HTU21D;63734;45.218;36.708;2023-05-07T11:52:18;14.06;90.76
75153;HTU21D;63734;45.218;36.708;2023-05-07T11:54:55;14.03;91.27
75153;HTU21D;63734;45.218;36.708;2023-05-07T11:57:25;13.98;91.34
75153;HTU21D;63734;45.218;36.708;2023-05-07T11:59:55;13.92;91.71
75153;HTU21D;63734;45.218;36.708;2023-05-07T12:02:21;13.88;91.89
75153;HTU21D;63734;45.218;36.708;2023-05-07T12:04:47;13.88;92.50
75153;HTU21D;63734;45.218;36.708;2023-05-07T12:07:14;13.92;92.82
75153;HTU21D;63734;45.218;36.708;2023-05-07T12:09:44;13.90;92.86
75153;HTU21D;63734;45.218;36.708;2023-05-07T12:12:11;13.91;93.25
75153;HTU21D;63734;45.218;36.708;2023-05-07T12:14:40;13.96;93.84
75153;HTU21D;63734;45.218;36.708;2023-05-07T12:17:11;13.96;93.99
75153;HTU21D;63734;45.218;36.708;2023-05-07T12:19:39;13.97;94.17
75153;HTU21D;63734;45.218;36.708;2023-05-07T12:22:07;13.94;94.11
75153;HTU21D;63734;45.218;36.708;2023-05-07T12:24:58;13.91;93.70
75153;HTU21D;63734;45.218;36.708;2023-05-07T12:27:25;13.86;93.14
75153;HTU21D;63734;45.218;36.708;2023-05-07T12:29:51;13.84;92.89
75153;HTU21D;63734;45.218;36.708;2023-05-07T12:32:19;13.84;92.98
75153;HTU21D;63734;45.218;36.708;2023-05-07T12:34:45;13.80;93.01
75153;HTU21D;63734;45.218;36.708;2023-05-07T12:37:12;13.81;93.75
75153;HTU21D;63734;45.218;36.708;2023-05-07T12:39:43;13.79;93.50
75153;HTU21D;63734;45.218;36.708;2023-05-07T12:42:15;13.78;92.85
75153;HTU21D;63734;45.218;36.708;2023-05-07T12:44:45;13.76;92.99
75153;HTU21D;63734;45.218;36.708;2023-05-07T12:47:11;13.77;92.97
75153;HTU21D;63734;45.218;36.708;2023-05-07T12:49:38;13.77;93.40
75153;HTU21D;63734;45.218;36.708;2023-05-07T12:52:06;13.79;94.05
75153;HTU21D;63734;45.218;36.708;2023-05-07T12:54:33;13.74;93.17
75153;HTU21D;63734;45.218;36.708;2023-05-07T12:57:09;13.69;92.71
75153;HTU21D;63734;45.218;36.708;2023-05-07T12:59:40;13.70;93.08
75153;HTU21D;63734;45.218;36.708;2023-05-07T13:02:07;13.67;92.40
75153;HTU21D;63734;45.218;36.708;2023-05-07T13:04:35;13.63;92.73
75153;HTU21D;63734;45.218;36.708;2023-05-07T13:07:01;13.67;94.00
75153;HTU21D;63734;45.218;36.708;2023-05-07T13:09:28;13.66;93.37
75153;HTU21D;63734;45.218;36.708;2023-05-07T13:11:57;13.63;93.14
75153;HTU21D;63734;45.218;36.708;2023-05-07T13:14:26;13.64;93.51
75153;HTU21D;63734;45.218;36.708;2023-05-07T13:16:52;13.61;92.97
75153;HTU21D;63734;45.218;36.708;2023-05-07T13:19:18;13.63;93.48
75153;HTU21D;63734;45.218;36.708;2023-05-07T13:21:44;13.69;94.27
75153;HTU21D;63734;45.218;36.708;2023-05-07T13:24:10;13.66;93.18
75153;HTU21D;63734;45.218;36.708;2023-05-07T13:26:36;13.64;93.32
75153;HTU21D;63734;45.218;36.708;2023-05-07T13:29:02;13.63;93.85
75153;HTU21D;63734;45.218;36.708;2023-05-07T13:31:28;13.68;94.71
75153;HTU21D;63734;45.218;36.708;2023-05-07T13:33:55;13.65;94.18
75153;HTU21D;63734;45.218;36.708;2023-05-07T13:36:21;13.62;93.56
75153;HTU21D;63734;45.218;36.708;2023-05-07T13:38:47;13.62;93.83
75153;HTU21D;63734;45.218;36.708;2023-05-07T13:41:14;13.61;93.53
75153;HTU21D;63734;45.218;36.708;2023-05-07T13:43:40;13.65;94.54
75153;HTU21D;63734;45.218;36.708;2023-05-07T13:46:06;13.69;94.33
75153;HTU21D;63734;45.218;36.708;2023-05-07T13:48:32;13.68;93.94
75153;HTU21D;63734;45.218;36.708;2023-05-07T13:50:58;13.69;93.54
75153;HTU21D;63734;45.218;36.708;2023-05-07T13:53:23;13.71;93.73
75153;HTU21D;63734;45.218;36.708;2023-05-07T13:55:49;13.73;93.50
75153;HTU21D;63734;45.218;36.708;2023-05-07T13:58:15;13.65;92.92
75153;HTU21D;63734;45.218;36.708;2023-05-07T14:00:41;13.66;94.01
75153;HTU21D;63734;45.218;36.708;2023-05-07T14:03:07;13.67;94.20
75153;HTU21D;63734;45.218;36.708;2023-05-07T14:05:33;13.66;94.91
75153;HTU21D;63734;45.218;36.708;2023-05-07T14:07:59;13.65;94.42
75153;HTU21D;63734;45.218;36.708;2023-05-07T14:10:25;13.62;94.75
75153;HTU21D;63734;45.218;36.708;2023-05-07T14:12:51;13.66;95.67
75153;HTU21D;63734;45.218;36.708;2023-05-07T14:15:18;13.69;95.68
75153;HTU21D;63734;45.218;36.708;2023-05-07T14:17:44;13.66;94.84
75153;HTU21D;63734;45.218;36.708;2023-05-07T14:20:11;13.64;94.91
75153;HTU21D;63734;45.218;36.708;2023-05-07T14:22:37;13.65;95.36
75153;HTU21D;63734;45.218;36.708;2023-05-07T14:25:04;13.64;95.04
75153;HTU21D;63734;45.218;36.708;2023-05-07T14:27:30;13.66;95.18
75153;HTU21D;63734;45.218;36.708;2023-05-07T14:29:56;13.68;95.01
75153;HTU21D;63734;45.218;36.708;2023-05-07T14:32:22;13.65;94.54
75153;HTU21D;63734;45.218;36.708;2023-05-07T14:34:48;13.68;95.36
75153;HTU21D;63734;45.218;36.708;2023-05-07T14:37:15;13.69;95.16
75153;HTU21D;63734;45.218;36.708;2023-05-07T14:39:41;13.64;94.88
75153;HTU21D;63734;45.218;36.708;2023-05-07T14:42:07;13.63;95.30
75153;HTU21D;63734;45.218;36.708;2023-05-07T14:44:35;13.56;95.23
75153;HTU21D;63734;45.218;36.708;2023-05-07T14:47:01;13.55;95.60
75153;HTU21D;63734;45.218;36.708;2023-05-07T14:49:27;13.53;95.96
75153;HTU21D;63734;45.218;36.708;2023-05-07T14:51:53;13.53;96.04
75153;HTU21D;63734;45.218;36.708;2023-05-07T14:54:20;13.53;96.08
75153;HTU21D;63734;45.218;36.708;2023-05-07T14:56:45;13.54;95.94
75153;HTU21D;63734;45.218;36.708;2023-05-07T14:59:11;13.56;96.51
75153;HTU21D;63734;45.218;36.708;2023-05-07T15:01:38;13.55;96.15
75153;HTU21D;63734;45.218;36.708;2023-05-07T15:04:05;13.60;97.28
75153;HTU21D;63734;45.218;36.708;2023-05-07T15:06:32;13.58;97.01
75153;HTU21D;63734;45.218;36.708;2023-05-07T15:08:58;13.56;97.82
75153;HTU21D;63734;45.218;36.708;2023-05-07T15:11:25;13.56;98.01
75153;HTU21D;63734;45.218;36.708;2023-05-07T15:13:51;13.56;98.31
75153;HTU21D;63734;45.218;36.708;2023-05-07T15:16:17;13.55;98.17
75153;HTU21D;63734;45.218;36.708;2023-05-07T15:18:43;13.54;98.58